Time;durP1;ratioP1;P1;durP2;ratioP2;P2;SDS_P1;SDS_P2;PMS_P1;PMS_P2;Temp;Humidity;BMP_temperature;BMP_pressure;BME280_temperature;BME280_humidity;BME280_pressure;Samples;Min_cycle;Max_cycle;Signal;HPM_P1;HPM_P2
2022/04/06 00:01:25;;;;;;;5.70;5.00;;;;;;;7.08;79.07;97522.30;218665;1276;25248;-68
2022/04/06 00:06:53;;;;;;;5.30;4.80;;;;;;;7.09;79.26;97524.84;218393;1276;25262;-68
2022/04/06 00:11:55;;;;;;;5.20;4.70;;;;;;;7.09;79.15;97514.66;218403;1276;25474;-68
2022/04/06 00:17:03;;;;;;;5.00;4.50;;;;;;;7.08;79.30;97518.88;218582;1276;25342;-68
2022/04/06 00:22:06;;;;;;;5.80;4.80;;;;;;;7.05;79.18;97511.95;218746;1276;22614;-68
2022/04/06 00:27:09;;;;;;;5.80;4.90;;;;;;;7.01;79.34;97525.73;218408;1276;23841;-68
2022/04/06 00:32:14;;;;;;;5.80;5.10;;;;;;;7.02;79.17;97530.35;218791;1276;25349;-68
2022/04/06 00:37:17;;;;;;;5.10;4.30;;;;;;;7.02;79.10;97532.88;218442;1276;26482;-68
2022/04/06 00:42:19;;;;;;;5.00;4.40;;;;;;;7.03;79.15;97532.61;218561;1276;22587;-68
2022/04/06 00:47:28;;;;;;;5.20;4.60;;;;;;;7.01;79.19;97518.59;218278;1276;22618;-68
2022/04/06 00:52:40;;;;;;;4.30;3.90;;;;;;;7.02;79.13;97516.44;218329;1276;25517;-68
2022/04/06 00:57:52;;;;;;;4.60;3.90;;;;;;;7.07;79.29;97519.11;218578;1276;24240;-68
2022/04/06 01:02:55;;;;;;;5.00;4.50;;;;;;;7.12;79.29;97518.64;218496;1276;23807;-68
2022/04/06 01:08:00;;;;;;;4.50;3.80;;;;;;;7.15;79.70;97515.77;218536;1276;24223;-68
2022/04/06 01:13:23;;;;;;;5.20;4.50;;;;;;;7.14;79.93;97521.90;218264;1276;25353;-67
2022/04/06 01:18:25;;;;;;;4.80;4.30;;;;;;;7.12;79.78;97529.23;218578;1276;25355;-68
2022/04/06 01:23:31;;;;;;;4.60;4.00;;;;;;;7.12;80.46;97528.16;218142;1276;23802;-67
2022/04/06 01:29:00;;;;;;;5.40;4.70;;;;;;;7.12;80.40;97531.37;218689;1276;24553;-68
2022/04/06 01:34:10;;;;;;;4.90;4.40;;;;;;;7.14;80.43;97536.46;218428;1276;22531;-68
2022/04/06 01:39:24;;;;;;;4.90;4.40;;;;;;;7.15;80.42;97531.69;218384;1276;22556;-68
2022/04/06 01:44:31;;;;;;;4.90;4.50;;;;;;;7.16;80.10;97525.80;218217;1276;22649;-68
2022/04/06 01:55:15;;;;;;;5.10;4.60;;;;;;;7.15;80.68;97505.27;218558;1276;22607;-67
2022/04/06 02:00:37;;;;;;;5.20;4.70;;;;;;;7.17;81.00;97509.08;218395;1276;22777;-68
2022/04/06 02:05:41;;;;;;;5.00;4.50;;;;;;;7.17;80.84;97510.77;218556;1276;24261;-67
2022/04/06 02:10:55;;;;;;;5.30;4.70;;;;;;;7.12;80.67;97511.08;218423;1276;22568;-68
2022/04/06 02:15:58;;;;;;;5.90;5.20;;;;;;;7.04;80.56;97514.70;218537;1276;24836;-68
2022/04/06 02:21:01;;;;;;;5.90;5.10;;;;;;;6.96;80.69;97515.42;218389;1276;24778;-68
2022/04/06 02:26:06;;;;;;;5.80;5.20;;;;;;;6.94;81.04;97523.03;218281;1276;24237;-68
2022/04/06 02:31:09;;;;;;;5.90;5.30;;;;;;;6.92;80.97;97527.74;218238;1276;24416;-67
2022/04/06 02:36:17;;;;;;;6.00;5.00;;;;;;;6.92;80.98;97529.19;218215;1276;22570;-68
2022/04/06 02:41:20;;;;;;;5.30;4.80;;;;;;;6.95;81.18;97530.90;218263;1276;24237;-67
2022/04/06 02:46:23;;;;;;;5.90;5.30;;;;;;;6.99;81.25;97538.21;218436;1276;25463;-68
2022/04/06 02:51:26;;;;;;;6.30;5.10;;;;;;;7.03;81.05;97535.73;218356;1276;24328;-68
2022/04/06 02:57:07;;;;;;;6.30;5.30;;;;;;;7.06;81.02;97537.62;218154;1276;22586;-67
2022/04/06 03:02:09;;;;;;;5.70;5.00;;;;;;;7.05;80.73;97537.80;218293;1276;22626;-68
2022/04/06 03:07:17;;;;;;;6.10;5.50;;;;;;;7.04;80.85;97525.89;218166;1276;22540;-67
2022/04/06 03:12:20;;;;;;;7.20;6.50;;;;;;;7.05;81.02;97530.03;218374;1276;22583;-67
2022/04/06 03:17:23;;;;;;;5.00;4.60;;;;;;;7.09;81.23;97534.52;218701;1276;22625;-68
2022/04/06 03:22:29;;;;;;;5.30;4.80;;;;;;;7.17;81.08;97539.04;218307;1276;24355;-66
2022/04/06 03:27:41;;;;;;;5.80;5.20;;;;;;;7.25;81.14;97544.70;218135;1276;22557;-67
2022/04/06 03:32:43;;;;;;;6.60;5.00;;;;;;;7.31;80.91;97534.20;218230;1276;24458;-68
2022/04/06 03:37:46;;;;;;;5.60;5.10;;;;;;;7.34;80.79;97534.89;218300;1276;24362;-66
2022/04/06 03:42:51;;;;;;;6.90;4.90;;;;;;;7.34;80.77;97532.86;218461;1276;24270;-68
2022/04/06 03:48:08;;;;;;;6.40;5.60;;;;;;;7.31;80.61;97545.05;218307;1276;23588;-68
2022/04/06 03:53:13;;;;;;;6.70;6.00;;;;;;;7.27;80.57;97544.41;218774;1276;24799;-68
2022/04/06 03:58:19;;;;;;;6.70;5.80;;;;;;;7.24;80.65;97539.23;218974;1276;24231;-67
2022/04/06 04:03:22;;;;;;;6.50;5.20;;;;;;;7.22;80.57;97544.70;218581;1276;24404;-68
2022/04/06 04:08:28;;;;;;;6.50;5.80;;;;;;;7.22;80.59;97547.48;218350;1276;24303;-68
2022/04/06 04:13:31;;;;;;;5.70;5.10;;;;;;;7.22;80.37;97554.95;218658;1276;22749;-67
2022/04/06 04:18:45;;;;;;;9.00;6.70;;;;;;;7.22;80.51;97558.14;218874;1274;25467;-68
2022/04/06 04:23:50;;;;;;;8.20;6.80;;;;;;;7.23;80.49;97558.55;218473;1276;25544;-68
2022/04/06 04:28:53;;;;;;;9.20;6.80;;;;;;;7.23;80.52;97557.73;218416;1276;24315;-68
2022/04/06 04:33:56;;;;;;;8.90;6.70;;;;;;;7.22;80.36;97559.85;218493;1276;24412;-68
2022/04/06 04:39:00;;;;;;;8.70;7.10;;;;;;;7.21;80.40;97560.29;218140;1278;22556;-68
2022/04/06 04:44:06;;;;;;;9.60;7.30;;;;;;;7.21;80.59;97560.45;218276;1276;24719;-68
2022/04/06 04:49:08;;;;;;;9.50;7.10;;;;;;;7.23;80.66;97561.53;218366;1276;22538;-67
2022/04/06 04:54:13;;;;;;;7.70;6.40;;;;;;;7.27;80.75;97562.36;218640;1276;27016;-68
2022/04/06 04:59:19;;;;;;;8.50;6.80;;;;;;;7.31;80.61;97571.88;218425;1276;24015;-68
2022/04/06 05:04:24;;;;;;;7.60;6.40;;;;;;;7.37;80.59;97570.48;218675;1276;22535;-68
2022/04/06 05:09:26;;;;;;;7.40;6.40;;;;;;;7.44;80.74;97580.21;218360;1276;22603;-67
2022/04/06 05:14:30;;;;;;;9.50;7.30;;;;;;;7.50;80.56;97574.74;218578;1276;22556;-68
2022/04/06 05:19:42;;;;;;;11.20;8.10;;;;;;;7.58;80.35;97582.33;218441;1276;22631;-66
2022/04/06 05:24:44;;;;;;;10.50;8.20;;;;;;;7.61;80.22;97580.66;218467;1276;22705;-66
2022/04/06 05:29:47;;;;;;;11.00;9.00;;;;;;;7.71;80.18;97597.48;218553;1276;22482;-67
2022/04/06 05:34:53;;;;;;;11.90;8.40;;;;;;;7.81;80.15;97604.58;218610;1276;22545;-68
2022/04/06 05:39:55;;;;;;;10.80;7.90;;;;;;;7.95;79.88;97601.02;218472;1276;22584;-68
2022/04/06 05:45:07;;;;;;;10.00;8.20;;;;;;;8.09;79.63;97603.23;218270;1276;25480;-67
2022/04/06 05:50:13;;;;;;;11.80;8.30;;;;;;;8.21;79.35;97603.49;218164;1276;22561;-67
2022/04/06 05:55:24;;;;;;;14.50;7.70;;;;;;;8.32;79.11;97609.02;218338;1276;22647;-68
2022/04/06 06:00:36;;;;;;;11.70;8.80;;;;;;;8.41;78.77;97617.63;218114;1277;25454;-67
2022/04/06 06:05:47;;;;;;;10.60;8.30;;;;;;;8.49;78.60;97623.50;218064;1277;22727;-67
2022/04/06 06:10:53;;;;;;;10.80;8.70;;;;;;;8.57;78.27;97637.35;218054;1277;24198;-67
2022/04/06 06:16:05;;;;;;;8.80;7.80;;;;;;;8.62;78.11;97633.23;218272;1276;22541;-68
2022/04/06 06:21:11;;;;;;;11.60;8.30;;;;;;;8.73;78.09;97634.41;218455;1276;24319;-68
2022/04/06 06:26:14;;;;;;;8.80;7.30;;;;;;;8.87;78.04;97633.88;217918;1276;22558;-68
2022/04/06 06:31:17;;;;;;;9.70;7.70;;;;;;;9.00;77.82;97633.17;217906;1276;22564;-69
2022/04/06 06:36:20;;;;;;;8.20;7.10;;;;;;;9.11;77.67;97636.72;218529;1277;22564;-68
2022/04/06 06:41:23;;;;;;;8.70;6.80;;;;;;;9.18;77.40;97631.19;218128;1277;23748;-68
2022/04/06 06:46:26;;;;;;;6.70;5.90;;;;;;;9.24;76.95;97634.56;218449;1277;22610;-68
2022/04/06 06:51:31;;;;;;;6.70;5.60;;;;;;;9.28;76.80;97644.98;218222;1276;22694;-68
2022/04/06 06:56:34;;;;;;;7.80;6.40;;;;;;;9.28;76.80;97639.54;217953;1276;23054;-69
2022/04/06 07:01:38;;;;;;;8.50;6.90;;;;;;;9.32;76.99;97640.16;218108;1279;22782;-67
2022/04/06 07:06:45;;;;;;;7.40;6.60;;;;;;;9.40;77.11;97642.52;218805;1276;22570;-67
2022/04/06 07:11:57;;;;;;;8.30;5.90;;;;;;;9.48;77.03;97640.45;218186;1274;23158;-68
2022/04/06 07:17:00;;;;;;;8.40;7.00;;;;;;;9.58;77.18;97632.23;218032;1276;22604;-69
2022/04/06 07:22:05;;;;;;;8.20;6.70;;;;;;;9.66;77.01;97635.04;218794;1276;24095;-68
2022/04/06 07:27:08;;;;;;;7.40;6.40;;;;;;;9.67;77.10;97638.88;218064;1276;303557;-69
2022/04/06 07:32:10;;;;;;;8.30;6.30;;;;;;;9.62;77.39;97643.83;218021;1278;24101;-69
2022/04/06 07:37:13;;;;;;;9.80;7.60;;;;;;;9.59;77.63;97649.98;218005;1276;25375;-69
2022/04/06 07:42:18;;;;;;;8.30;6.80;;;;;;;9.53;77.79;97664.42;218798;1276;24284;-69
2022/04/06 07:47:24;;;;;;;8.90;7.50;;;;;;;9.43;78.14;97662.98;218454;1276;24456;-68
2022/04/06 07:52:33;;;;;;;8.20;7.30;;;;;;;9.37;79.02;97658.20;218197;1276;26240;-68
2022/04/06 07:57:38;;;;;;;9.60;7.70;;;;;;;9.43;79.23;97657.56;218057;1276;25405;-68
2022/04/06 08:02:43;;;;;;;9.70;7.40;;;;;;;9.58;79.51;97657.60;218068;1276;25782;-68
2022/04/06 08:07:48;;;;;;;9.10;7.80;;;;;;;9.66;79.37;97658.36;218441;1276;25333;-68
2022/04/06 08:12:56;;;;;;;8.60;7.50;;;;;;;9.67;79.51;97656.34;218278;1276;23646;-67
2022/04/06 08:17:59;;;;;;;8.80;7.80;;;;;;;9.87;79.79;97662.88;217941;1277;25319;-68
2022/04/06 08:23:01;;;;;;;9.10;7.00;;;;;;;10.11;79.55;97667.48;218081;1277;25369;-69
2022/04/06 08:28:15;;;;;;;8.60;6.70;;;;;;;10.47;79.34;97677.11;218008;1277;22570;-69
2022/04/06 08:33:17;;;;;;;7.50;6.30;;;;;;;10.81;78.85;97681.32;218021;1276;22629;-67
2022/04/06 08:38:35;;;;;;;7.80;6.40;;;;;;;11.00;77.73;97684.16;218060;1276;22541;-68
2022/04/06 08:43:58;;;;;;;8.50;6.30;;;;;;;11.09;76.95;97684.50;217983;1276;23390;-67
2022/04/06 08:49:02;;;;;;;6.90;6.00;;;;;;;11.21;76.78;97688.58;218042;1277;22651;-69
2022/04/06 08:54:20;;;;;;;6.70;5.80;;;;;;;11.30;75.41;97688.20;218321;1276;22725;-67
2022/04/06 08:59:22;;;;;;;8.10;6.20;;;;;;;11.55;75.52;97685.30;217869;1276;22617;-67
2022/04/06 09:04:31;;;;;;;7.90;5.80;;;;;;;11.77;74.46;97676.67;217998;1276;25251;-66
2022/04/06 09:09:46;;;;;;;6.50;5.10;;;;;;;11.88;72.80;97675.02;218319;1276;22882;-67
2022/04/06 09:15:10;;;;;;;6.60;5.30;;;;;;;11.99;72.07;97668.37;218317;1277;22544;-67
2022/04/06 09:20:45;;;;;;;4.60;4.10;;;;;;;12.03;71.58;97671.12;218189;1277;22565;-67
2022/04/06 09:25:51;;;;;;;7.80;6.00;;;;;;;12.09;71.50;97665.53;218187;1276;24931;-68
2022/04/06 09:30:54;;;;;;;6.40;5.40;;;;;;;11.95;70.08;97665.52;218101;1277;25335;-67
2022/04/06 09:36:00;;;;;;;5.60;4.80;;;;;;;11.70;70.06;97663.45;218758;1276;25793;-66
2022/04/06 09:41:14;;;;;;;4.70;4.30;;;;;;;11.58;70.76;97671.84;218415;1277;25420;-66
2022/04/06 09:51:50;;;;;;;4.80;4.30;;;;;;;11.78;70.58;97657.98;218365;1277;22699;-67
2022/04/06 09:56:54;;;;;;;5.60;5.00;;;;;;;11.78;69.93;97659.56;218630;1277;25507;-67
2022/04/06 10:02:11;;;;;;;8.70;6.80;;;;;;;11.68;69.64;97654.64;218585;1277;22566;-68
2022/04/06 10:07:22;;;;;;;7.20;5.30;;;;;;;11.57;69.59;97649.38;218380;1277;24547;-69
2022/04/06 10:12:31;;;;;;;5.40;4.80;;;;;;;11.56;70.51;97647.86;218452;1278;22775;-68
2022/04/06 10:17:54;;;;;;;3.90;3.50;;;;;;;11.70;69.50;97651.24;217733;1277;99362;-68
2022/04/06 10:23:32;;;;;;;3.20;2.90;;;;;;;11.71;69.20;97650.38;218238;1279;25525;-68
2022/04/06 10:28:51;;;;;;;3.40;3.10;;;;;;;11.74;69.06;97645.61;218001;1279;22609;-69
2022/04/06 10:34:22;;;;;;;3.70;3.30;;;;;;;11.76;68.95;97650.05;217987;1281;22639;-69
2022/04/06 10:39:24;;;;;;;3.20;2.80;;;;;;;11.90;68.19;97640.79;218486;1279;23804;-69
2022/04/06 10:44:37;;;;;;;3.50;3.20;;;;;;;12.17;67.78;97627.86;217951;1281;23858;-66
2022/04/06 10:49:41;;;;;;;3.40;3.00;;;;;;;12.43;66.42;97617.52;218229;1281;22600;-67
2022/04/06 10:55:12;;;;;;;3.50;3.20;;;;;;;12.60;65.19;97613.27;217863;1281;22570;-67
2022/04/06 11:00:22;;;;;;;4.20;3.40;;;;;;;12.67;64.91;97606.08;218143;1281;22692;-67
2022/04/06 11:06:12;;;;;;;5.20;4.00;;;;;;;12.77;65.55;97610.40;218146;1281;22718;-69
2022/04/06 11:11:44;;;;;;;5.10;3.90;;;;;;;12.91;65.56;97614.73;217137;1281;22579;-69
2022/04/06 11:16:48;;;;;;;5.30;4.20;;;;;;;13.01;65.07;97608.91;218221;1281;22704;-69
2022/04/06 11:21:52;;;;;;;4.10;3.70;;;;;;;13.15;64.91;97616.92;218334;1281;22559;-69
2022/04/06 11:27:12;;;;;;;5.00;4.10;;;;;;;13.27;64.52;97613.64;217857;1281;22642;-69
2022/04/06 11:32:17;;;;;;;5.50;4.60;;;;;;;13.29;63.87;97618.28;218091;1279;22546;-69
2022/04/06 11:37:22;;;;;;;5.40;4.80;;;;;;;13.23;64.21;97615.88;217738;1279;28473;-69
2022/04/06 11:42:33;;;;;;;5.80;4.40;;;;;;;13.19;64.00;97612.06;217941;1281;22611;-69
2022/04/06 11:47:45;;;;;;;5.80;4.60;;;;;;;13.15;64.52;97606.54;217789;1280;22567;-69
2022/04/06 11:53:18;;;;;;;6.60;4.90;;;;;;;13.00;64.73;97603.38;217409;1281;25471;-69
2022/04/06 11:58:57;;;;;;;5.80;4.60;;;;;;;12.81;64.98;97598.29;218087;1281;24366;-69
2022/04/06 12:04:22;;;;;;;5.30;4.00;;;;;;;12.66;65.32;97592.01;217733;1281;25571;-69
2022/04/06 12:09:45;;;;;;;4.20;3.60;;;;;;;12.55;65.40;97587.92;217995;1279;22720;-69
2022/04/06 12:14:51;;;;;;;5.00;4.00;;;;;;;12.48;65.61;97583.96;218412;1281;24352;-69
2022/04/06 12:19:53;;;;;;;4.70;4.00;;;;;;;12.56;65.81;97570.70;218336;1281;22559;-68
2022/04/06 12:25:01;;;;;;;6.20;4.50;;;;;;;12.80;65.73;97561.08;218347;1279;24261;-71
2022/04/06 12:30:19;;;;;;;4.90;4.10;;;;;;;13.06;65.30;97553.09;219232;1281;24462;-69
2022/04/06 12:35:26;;;;;;;5.60;4.00;;;;;;;13.28;64.32;97547.27;219781;1281;24321;-68
2022/04/06 12:40:29;;;;;;;6.30;3.40;;;;;;;13.53;64.15;97538.13;218094;1281;22594;-69
2022/04/06 12:45:49;;;;;;;3.60;3.20;;;;;;;13.66;63.64;97536.02;218134;1279;24359;-70
2022/04/06 12:50:52;;;;;;;3.30;2.90;;;;;;;13.74;62.83;97530.40;218710;1278;25425;-70
2022/04/06 12:56:35;;;;;;;3.10;2.60;;;;;;;13.90;61.85;97523.79;217505;1281;22627;-70
2022/04/06 13:01:47;;;;;;;4.90;3.30;;;;;;;14.22;61.85;97509.43;219400;1279;22589;-71
2022/04/06 13:07:21;;;;;;;3.40;2.60;;;;;;;14.46;61.45;97502.60;217800;1281;25388;-69
2022/04/06 13:12:49;;;;;;;2.80;2.10;;;;;;;14.52;59.90;97489.63;218310;1280;25449;-69
2022/04/06 13:17:52;;;;;;;2.00;1.40;;;;;;;14.45;57.37;97485.98;218124;1279;25359;-70
2022/04/06 13:23:01;;;;;;;1.60;1.50;;;;;;;14.36;55.65;97490.65;218453;1278;23095;-69
2022/04/06 13:28:31;;;;;;;1.60;1.20;;;;;;;14.32;57.22;97482.00;218192;1278;22938;-69
2022/04/06 13:33:45;;;;;;;2.30;1.90;;;;;;;14.28;56.71;97479.44;218445;1279;22566;-69
2022/04/06 13:38:52;;;;;;;2.90;2.30;;;;;;;14.36;57.85;97472.49;218375;1280;24262;-67
2022/04/06 13:44:01;;;;;;;2.50;2.00;;;;;;;14.63;58.38;97466.05;218702;1279;24321;-67
2022/04/06 13:49:12;;;;;;;1.90;1.30;;;;;;;14.76;56.38;97468.67;218229;1278;24255;-69
2022/04/06 13:54:24;;;;;;;2.40;1.40;;;;;;;14.75;56.36;97466.34;218596;1279;22543;-69
2022/04/06 13:59:39;;;;;;;1.70;1.20;;;;;;;14.81;54.59;97462.57;218048;1279;24725;-69
2022/04/06 14:04:41;;;;;;;3.50;2.30;;;;;;;14.99;54.59;97452.13;218679;1279;22568;-69
2022/04/06 14:09:46;;;;;;;1.10;0.90;;;;;;;15.12;54.14;97443.24;218341;1279;25417;-69
2022/04/06 14:15:10;;;;;;;2.50;1.10;;;;;;;15.24;52.79;97435.04;218131;1279;22558;-68
2022/04/06 14:20:19;;;;;;;1.30;0.90;;;;;;;15.22;51.42;97428.84;218635;1280;24211;-69
2022/04/06 14:25:27;;;;;;;3.90;1.50;;;;;;;15.15;51.14;97423.75;218492;1279;24260;-69
2022/04/06 14:30:49;;;;;;;1.70;1.00;;;;;;;15.06;51.07;97413.91;218696;1279;24254;-68
2022/04/06 14:35:56;;;;;;;2.00;1.30;;;;;;;14.98;51.57;97408.73;218802;1279;25641;-70
2022/04/06 14:41:07;;;;;;;1.20;0.90;;;;;;;15.10;51.86;97405.75;218463;1279;24247;-68
2022/04/06 14:46:22;;;;;;;1.70;1.40;;;;;;;15.19;52.14;97400.27;218523;1279;22597;-69
2022/04/06 14:51:25;;;;;;;1.30;1.00;;;;;;;15.22;52.83;97395.30;218169;1279;24370;-68
2022/04/06 14:56:58;;;;;;;;;;;;;;;;;;;;;
2022/04/06 15:02:03;;;;;;;3.20;1.50;;;;;;;15.12;52.65;97385.84;218428;1279;22565;-69
2022/04/06 15:07:08;;;;;;;2.50;1.80;;;;;;;14.97;53.51;97380.65;218695;1279;22567;-67
2022/04/06 15:12:11;;;;;;;2.80;2.20;;;;;;;14.90;53.93;97374.42;218339;1279;22714;-69
2022/04/06 15:17:14;;;;;;;2.70;2.50;;;;;;;15.02;54.40;97364.98;218628;1279;24718;-69
2022/04/06 15:22:16;;;;;;;6.10;3.60;;;;;;;15.16;54.46;97353.10;218388;1279;25396;-69
2022/04/06 15:27:19;;;;;;;3.70;2.80;;;;;;;15.17;54.52;97351.96;218520;1279;22568;-69
2022/04/06 15:32:24;;;;;;;4.30;2.90;;;;;;;15.21;54.64;97346.89;218391;1279;22567;-69
2022/04/06 15:37:27;;;;;;;4.30;2.80;;;;;;;15.19;55.16;97346.54;218515;1279;25424;-69
2022/04/06 15:42:30;;;;;;;4.50;2.60;;;;;;;15.24;54.86;97337.31;218505;1279;22575;-68
2022/04/06 15:47:37;;;;;;;4.40;3.50;;;;;;;15.21;54.33;97334.19;218282;1279;22590;-71
2022/04/06 15:52:43;;;;;;;3.20;2.80;;;;;;;15.12;54.84;97328.44;218543;1279;25559;-69
2022/04/06 15:57:45;;;;;;;4.20;2.90;;;;;;;14.96;54.65;97323.16;218806;1279;22578;-68
2022/04/06 16:02:47;;;;;;;2.80;2.40;;;;;;;14.79;55.38;97321.73;218574;1279;22593;-69
2022/04/06 16:07:50;;;;;;;4.30;2.70;;;;;;;14.67;55.89;97318.51;218585;1279;24278;-69
2022/04/06 16:12:52;;;;;;;5.20;2.70;;;;;;;14.55;56.35;97312.38;218887;1279;27755;-69
2022/04/06 16:17:56;;;;;;;3.80;2.70;;;;;;;14.46;56.76;97310.64;218334;1281;24160;-69
2022/04/06 16:22:59;;;;;;;2.50;2.30;;;;;;;14.36;57.03;97310.03;218741;1279;22622;-68
2022/04/06 16:28:02;;;;;;;4.20;2.90;;;;;;;14.26;57.41;97307.30;218876;1279;22547;-68
2022/04/06 16:33:05;;;;;;;3.20;2.80;;;;;;;14.17;57.80;97303.73;218679;1279;22538;-69
2022/04/06 16:38:07;;;;;;;5.00;3.50;;;;;;;14.10;58.11;97300.32;218682;1279;22590;-69
2022/04/06 16:43:09;;;;;;;4.50;3.50;;;;;;;13.99;58.38;97298.76;218292;1279;22568;-70
2022/04/06 16:48:12;;;;;;;5.60;3.60;;;;;;;13.88;58.84;97293.56;218353;1279;22577;-67
2022/04/06 16:53:14;;;;;;;6.50;4.20;;;;;;;13.78;59.08;97287.91;218254;1279;22548;-69
2022/04/06 16:58:16;;;;;;;7.80;5.00;;;;;;;13.69;59.35;97283.98;218375;1279;22704;-70
2022/04/06 17:03:18;;;;;;;8.80;5.90;;;;;;;13.57;59.69;97281.62;218512;1279;26384;-68
2022/04/06 17:08:21;;;;;;;9.50;5.20;;;;;;;13.45;59.91;97279.16;218450;1279;23880;-69
2022/04/06 17:13:23;;;;;;;8.90;5.70;;;;;;;13.37;60.22;97273.14;218699;1279;24263;-69
2022/04/06 17:18:25;;;;;;;7.70;5.10;;;;;;;13.29;60.35;97269.38;218438;1279;22566;-70
2022/04/06 17:23:29;;;;;;;8.70;5.30;;;;;;;13.20;60.61;97272.83;218034;1281;22649;-69
2022/04/06 17:28:33;;;;;;;8.00;6.10;;;;;;;13.10;60.79;97264.94;218333;1279;24289;-71
2022/04/06 17:33:36;;;;;;;10.10;6.30;;;;;;;13.00;61.00;97265.66;219413;1279;22545;-69
2022/04/06 17:38:39;;;;;;;9.60;6.40;;;;;;;12.92;61.24;97265.68;218533;1279;22541;-69
2022/04/06 17:43:42;;;;;;;10.30;6.60;;;;;;;12.84;61.36;97264.61;218169;1281;25384;-68
2022/04/06 17:48:46;;;;;;;10.70;6.70;;;;;;;12.72;61.58;97264.48;218491;1281;22632;-69
2022/04/06 17:53:50;;;;;;;12.80;8.90;;;;;;;12.57;61.91;97265.11;218495;1279;25308;-69
2022/04/06 17:58:54;;;;;;;11.60;6.80;;;;;;;12.43;62.29;97265.23;218471;1279;22706;-69
2022/04/06 18:03:58;;;;;;;10.10;6.30;;;;;;;12.31;62.66;97260.58;218458;1279;22572;-69
2022/04/06 18:09:06;;;;;;;8.80;5.70;;;;;;;12.24;62.90;97262.88;218019;1281;25639;-69
2022/04/06 18:14:09;;;;;;;9.20;5.80;;;;;;;12.21;63.16;97265.34;218327;1279;22727;-69
2022/04/06 18:19:20;;;;;;;9.50;5.50;;;;;;;12.21;63.30;97267.48;218356;1279;22656;-72
2022/04/06 18:24:22;;;;;;;9.40;5.20;;;;;;;12.22;63.57;97266.20;218387;1279;22541;-71
2022/04/06 18:29:25;;;;;;;9.10;5.80;;;;;;;12.21;63.68;97264.27;218185;1279;22550;-69
2022/04/06 18:34:27;;;;;;;13.20;6.40;;;;;;;12.20;64.01;97263.45;218411;1279;22566;-69
2022/04/06 18:39:30;;;;;;;12.60;8.00;;;;;;;12.19;64.16;97269.80;218246;1279;22674;-69
2022/04/06 18:44:36;;;;;;;20.30;11.30;;;;;;;12.17;63.84;97267.02;218279;1279;22600;-69
2022/04/06 18:49:42;;;;;;;22.90;13.60;;;;;;;12.13;64.31;97266.94;218265;1279;25391;-69
2022/04/06 18:54:46;;;;;;;25.20;14.10;;;;;;;12.08;64.41;97261.33;218703;1279;24410;-69
2022/04/06 18:59:49;;;;;;;27.60;15.50;;;;;;;12.05;64.47;97257.48;218521;1279;22576;-69
2022/04/06 19:04:52;;;;;;;24.10;14.30;;;;;;;12.06;64.88;97254.73;218497;1279;25603;-68
2022/04/06 19:09:54;;;;;;;25.30;14.20;;;;;;;12.06;64.75;97252.73;218246;1279;25374;-70
2022/04/06 19:14:58;;;;;;;31.10;15.90;;;;;;;12.03;64.94;97249.81;218378;1279;24347;-69
2022/04/06 19:20:08;;;;;;;23.40;14.30;;;;;;;11.98;64.97;97247.66;219336;1279;22674;-68
2022/04/06 19:25:19;;;;;;;20.30;12.50;;;;;;;11.90;65.28;97246.02;218285;1279;496565;-69
2022/04/06 19:30:30;;;;;;;24.50;13.20;;;;;;;11.82;65.26;97242.21;218810;1279;22803;-69
2022/04/06 19:35:38;;;;;;;25.90;14.60;;;;;;;11.74;65.49;97242.18;218582;1279;22709;-71
2022/04/06 19:40:45;;;;;;;26.50;14.80;;;;;;;11.68;65.55;97247.19;218553;1278;22562;-69
2022/04/06 19:45:50;;;;;;;25.50;16.10;;;;;;;11.59;65.95;97243.59;218646;1279;25695;-68
2022/04/06 19:51:02;;;;;;;30.60;16.00;;;;;;;11.56;66.43;97240.28;218702;1278;22768;-69
2022/04/06 19:56:10;;;;;;;26.80;15.40;;;;;;;11.47;66.36;97236.33;218634;1277;24085;-70
2022/04/06 20:01:14;;;;;;;28.00;15.20;;;;;;;11.44;66.80;97232.98;219795;1279;23807;-69
2022/04/06 20:06:17;;;;;;;26.60;15.40;;;;;;;11.44;66.92;97228.03;218607;1279;26437;-70
2022/04/06 20:11:19;;;;;;;25.70;13.90;;;;;;;11.47;66.98;97221.69;218246;1279;22788;-70
2022/04/06 20:16:21;;;;;;;22.50;12.10;;;;;;;11.50;67.02;97216.48;218539;1279;24159;-67
2022/04/06 20:21:33;;;;;;;17.80;11.30;;;;;;;11.51;67.22;97215.06;218307;1279;22555;-69
2022/04/06 20:26:45;;;;;;;21.00;11.20;;;;;;;11.50;67.17;97214.89;218475;1279;26480;-69
2022/04/06 20:31:48;;;;;;;24.70;12.10;;;;;;;11.46;67.12;97208.80;218459;1279;22652;-69
2022/04/06 20:36:54;;;;;;;22.80;12.20;;;;;;;11.42;67.18;97205.75;218055;1279;22738;-69
2022/04/06 20:41:56;;;;;;;23.70;11.70;;;;;;;11.39;67.10;97202.66;218390;1279;24291;-69
2022/04/06 20:46:59;;;;;;;19.90;11.60;;;;;;;11.38;67.10;97198.09;218372;1279;24436;-69
2022/04/06 20:52:05;;;;;;;22.20;11.20;;;;;;;11.32;67.26;97196.20;218487;1279;25615;-69
2022/04/06 20:57:07;;;;;;;23.60;11.90;;;;;;;11.22;67.00;97187.35;218603;1279;25409;-68
2022/04/06 21:02:10;;;;;;;23.10;12.50;;;;;;;11.05;67.23;97182.09;218330;1279;22544;-69
2022/04/06 21:07:15;;;;;;;19.00;10.40;;;;;;;10.87;67.30;97176.68;218395;1279;24537;-69
2022/04/06 21:12:18;;;;;;;18.60;10.00;;;;;;;10.70;67.67;97168.79;218295;1279;22538;-68
2022/04/06 21:17:20;;;;;;;21.80;11.80;;;;;;;10.56;67.99;97166.09;218169;1279;22698;-69
2022/04/06 21:22:22;;;;;;;22.00;12.60;;;;;;;10.45;68.26;97158.21;218195;1279;24321;-69
2022/04/06 21:27:25;;;;;;;20.60;11.90;;;;;;;10.37;68.34;97154.84;218435;1279;22631;-68
2022/04/06 21:32:27;;;;;;;21.50;12.50;;;;;;;10.29;68.56;97147.41;217905;1281;24169;-69
2022/04/06 21:37:30;;;;;;;25.80;13.80;;;;;;;10.22;68.74;97141.63;218129;1279;22642;-69
2022/04/06 21:42:44;;;;;;;23.90;13.30;;;;;;;10.15;69.09;97143.91;218259;1279;22667;-70
2022/04/06 21:47:46;;;;;;;25.20;13.80;;;;;;;10.08;69.22;97135.92;218269;1279;22628;-69
2022/04/06 21:52:48;;;;;;;26.30;14.10;;;;;;;10.00;69.18;97129.77;218077;1279;22740;-69
2022/04/06 21:57:53;;;;;;;26.90;14.00;;;;;;;9.95;69.55;97126.67;218151;1279;22545;-70
2022/04/06 22:02:58;;;;;;;26.40;14.30;;;;;;;9.90;69.70;97122.58;218609;1279;25430;-68
2022/04/06 22:08:00;;;;;;;26.80;15.50;;;;;;;9.85;69.84;97114.45;218189;1279;25536;-69
2022/04/06 22:13:03;;;;;;;31.80;16.50;;;;;;;9.81;69.96;97111.45;218170;1279;24903;-69
2022/04/06 22:18:05;;;;;;;28.90;15.90;;;;;;;9.75;70.10;97109.58;218209;1279;22582;-67
2022/04/06 22:23:10;;;;;;;34.60;17.90;;;;;;;9.72;70.43;97107.16;218111;1279;25358;-70
2022/04/06 22:28:13;;;;;;;33.00;17.20;;;;;;;9.70;70.59;97107.67;218197;1279;22687;-68
2022/04/06 22:33:16;;;;;;;30.20;16.70;;;;;;;9.68;70.62;97105.83;218493;1279;22566;-69
2022/04/06 22:38:18;;;;;;;30.40;17.00;;;;;;;9.70;70.73;97099.11;218420;1279;22569;-69
2022/04/06 22:43:21;;;;;;;32.20;17.50;;;;;;;9.72;70.82;97097.98;218618;1279;22562;-68
2022/04/06 22:48:23;;;;;;;30.20;16.60;;;;;;;9.72;70.87;97101.66;218281;1279;24291;-69
2022/04/06 22:53:25;;;;;;;31.70;17.50;;;;;;;9.69;70.85;97100.63;218423;1279;25506;-69
2022/04/06 22:58:28;;;;;;;31.40;17.80;;;;;;;9.67;70.94;97101.41;217924;1281;22579;-68
2022/04/06 23:03:30;;;;;;;32.20;16.90;;;;;;;9.63;70.91;97091.23;218234;1279;22556;-67
2022/04/06 23:08:35;;;;;;;30.70;17.00;;;;;;;9.57;71.07;97087.43;218372;1279;22708;-70
2022/04/06 23:13:38;;;;;;;28.80;17.90;;;;;;;9.54;71.20;97084.89;218624;1279;22799;-69
2022/04/06 23:18:40;;;;;;;32.30;17.90;;;;;;;9.49;71.13;97085.39;218375;1279;22599;-69
2022/04/06 23:23:42;;;;;;;32.60;18.40;;;;;;;9.40;71.23;97084.23;217944;1279;22809;-68
2022/04/06 23:28:45;;;;;;;34.50;17.90;;;;;;;9.33;71.42;97076.91;218224;1279;24461;-69
2022/04/06 23:33:47;;;;;;;32.50;17.90;;;;;;;9.27;71.59;97075.09;218266;1279;25469;-69
2022/04/06 23:38:52;;;;;;;32.00;16.60;;;;;;;9.25;71.74;97066.45;218302;1279;22941;-69
2022/04/06 23:43:57;;;;;;;32.50;18.30;;;;;;;9.28;71.89;97050.32;218259;1279;25262;-69
2022/04/06 23:49:00;;;;;;;35.10;19.70;;;;;;;9.32;72.04;97039.77;218326;1279;25555;-69
2022/04/06 23:54:02;;;;;;;34.70;19.40;;;;;;;9.34;72.16;97035.87;218443;1279;22545;-68
2022/04/06 23:59:05;;;;;;;31.60;18.30;;;;;;;9.35;71.99;97033.23;218387;1279;22550;-68
